Time;durP1;ratioP1;P1;durP2;ratioP2;P2;SDS_P1;SDS_P2;PMS_P1;PMS_P2;Temp;Humidity;BMP_temperature;BMP_pressure;BME280_temperature;BME280_humidity;BME280_pressure;Samples;Min_cycle;Max_cycle;Signal;HPM_P1;HPM_P2
2023/12/12 00:01:22;;;;;;;22.77;13.00;;;8.00;1.00;;;;;;5023658;28;20238;-71
2023/12/12 00:03:49;;;;;;;21.87;12.47;;;8.10;1.00;;;;;;5031323;28;20205;-70
2023/12/12 00:06:17;;;;;;;21.83;13.20;;;8.10;1.00;;;;;;5028574;28;20195;-70
2023/12/12 00:08:44;;;;;;;16.67;12.97;;;8.10;1.00;;;;;;5037191;28;20270;-69
2023/12/12 00:11:11;;;;;;;26.63;13.57;;;8.10;1.00;;;;;;5031678;28;20548;-71
2023/12/12 00:13:38;;;;;;;15.47;12.73;;;8.10;1.00;;;;;;5012696;28;20200;-71
2023/12/12 00:16:06;;;;;;;15.33;11.93;;;8.10;1.00;;;;;;5025345;28;20195;-70
2023/12/12 00:18:35;;;;;;;20.83;12.80;;;8.10;1.00;;;;;;5014031;28;20705;-70
2023/12/12 00:21:03;;;;;;;22.20;12.17;;;8.10;1.00;;;;;;5032133;28;20201;-70
2023/12/12 00:23:30;;;;;;;16.80;12.07;;;8.20;1.00;;;;;;5025813;28;20201;-70
2023/12/12 00:25:57;;;;;;;18.43;11.90;;;8.10;1.00;;;;;;5028617;28;20280;-71
2023/12/12 00:28:25;;;;;;;20.87;12.37;;;8.10;1.00;;;;;;5013618;28;20203;-65
2023/12/12 00:30:53;;;;;;;15.23;12.43;;;8.10;1.00;;;;;;5011892;28;20649;-65
2023/12/12 00:33:20;;;;;;;24.63;14.00;;;8.00;1.00;;;;;;5025537;28;20701;-66
2023/12/12 00:35:48;;;;;;;39.40;22.57;;;8.00;1.00;;;;;;5038765;28;20188;-68
2023/12/12 00:38:15;;;;;;;20.53;13.07;;;8.00;1.00;;;;;;5032634;28;20192;-66
2023/12/12 00:40:53;;;;;;;17.43;12.27;;;8.10;1.00;;;;;;5025657;28;20656;-66
2023/12/12 00:43:22;;;;;;;22.73;13.73;;;8.10;1.00;;;;;;5028596;28;20624;-63
2023/12/12 00:45:49;;;;;;;13.83;12.43;;;8.10;1.00;;;;;;5028876;28;20202;-65
2023/12/12 00:48:17;;;;;;;30.60;13.97;;;8.00;1.00;;;;;;5027132;28;20522;-65
2023/12/12 00:50:45;;;;;;;22.17;13.77;;;8.00;1.00;;;;;;5023140;28;20200;-66
2023/12/12 00:53:12;;;;;;;23.87;12.97;;;8.10;1.00;;;;;;5026840;28;20199;-67
2023/12/12 00:55:39;;;;;;;25.83;13.73;;;8.00;1.00;;;;;;5038406;28;20199;-64
2023/12/12 00:58:06;;;;;;;16.13;11.47;;;8.00;1.00;;;;;;5022215;28;20212;-65
2023/12/12 01:00:33;;;;;;;14.10;11.83;;;8.10;1.00;;;;;;5028338;28;20284;-65
2023/12/12 01:03:00;;;;;;;20.90;11.97;;;8.00;1.00;;;;;;5028500;28;20187;-65
2023/12/12 01:05:27;;;;;;;18.93;12.37;;;8.00;1.00;;;;;;5030013;28;20604;-64
2023/12/12 01:07:53;;;;;;;20.47;11.67;;;8.00;1.00;;;;;;5032362;28;20203;-65
2023/12/12 01:10:21;;;;;;;16.77;10.90;;;8.00;1.00;;;;;;5033017;28;20227;-65
2023/12/12 01:12:48;;;;;;;19.23;11.97;;;8.00;1.00;;;;;;5036902;28;20343;-65
2023/12/12 01:15:15;;;;;;;14.70;12.00;;;8.00;1.00;;;;;;5035760;28;20335;-64
2023/12/12 01:17:42;;;;;;;15.47;12.33;;;8.00;1.00;;;;;;5028649;28;20208;-64
2023/12/12 01:20:10;;;;;;;17.37;11.53;;;8.10;99.90;;;;;;5030770;28;20188;-65
2023/12/12 01:22:37;;;;;;;16.97;11.97;;;8.00;99.90;;;;;;5026152;28;20267;-65
2023/12/12 01:25:05;;;;;;;26.93;11.37;;;8.00;99.90;;;;;;5034768;28;20202;-65
2023/12/12 01:27:32;;;;;;;21.63;12.07;;;8.10;99.90;;;;;;5029705;28;20200;-65
2023/12/12 01:29:59;;;;;;;18.50;12.13;;;8.00;99.90;;;;;;5029837;28;20192;-65
2023/12/12 01:32:26;;;;;;;13.93;12.27;;;8.10;99.90;;;;;;5030090;28;20200;-66
2023/12/12 01:34:53;;;;;;;16.00;10.47;;;8.00;99.90;;;;;;5035489;28;20211;-65
2023/12/12 01:37:20;;;;;;;15.37;10.93;;;8.00;99.90;;;;;;5033516;28;20208;-65
2023/12/12 01:39:47;;;;;;;13.10;10.90;;;8.00;99.90;;;;;;5027922;28;20528;-65
2023/12/12 01:42:14;;;;;;;13.13;10.93;;;8.00;99.90;;;;;;5026385;28;20203;-65
2023/12/12 01:44:41;;;;;;;12.27;11.20;;;8.10;99.90;;;;;;5030260;28;20613;-65
2023/12/12 01:47:10;;;;;;;21.80;13.37;;;8.00;99.90;;;;;;5024889;28;20524;-66
2023/12/12 01:49:37;;;;;;;14.93;13.57;;;8.00;99.90;;;;;;5010385;28;20204;-66
2023/12/12 01:52:05;;;;;;;20.23;14.13;;;8.00;99.90;;;;;;5028889;28;20484;-66
2023/12/12 01:54:36;;;;;;;15.30;13.80;;;8.00;99.90;;;;;;5034520;28;20223;-66
2023/12/12 01:57:03;;;;;;;15.20;11.47;;;8.00;99.90;;;;;;5034203;28;20224;-66
2023/12/12 01:59:31;;;;;;;14.27;11.40;;;8.10;99.90;;;;;;5038172;28;20211;-66
2023/12/12 02:01:59;;;;;;;12.80;11.53;;;8.00;99.90;;;;;;5035372;28;20195;-67
2023/12/12 02:04:26;;;;;;;12.33;11.13;;;8.10;99.90;;;;;;5038751;28;20593;-66
2023/12/12 02:06:56;;;;;;;15.83;11.47;;;8.00;99.90;;;;;;5019115;28;20220;-65
2023/12/12 02:09:25;;;;;;;12.10;10.87;;;8.10;99.90;;;;;;5020291;28;20279;-66
2023/12/12 02:11:52;;;;;;;15.50;10.53;;;8.00;99.90;;;;;;5025726;28;20278;-68
2023/12/12 02:14:19;;;;;;;12.73;11.00;;;8.00;99.90;;;;;;5036624;28;20231;-67
2023/12/12 02:16:46;;;;;;;13.97;10.73;;;8.00;99.90;;;;;;5023284;28;20189;-68
2023/12/12 02:19:13;;;;;;;10.83;10.07;;;8.10;99.90;;;;;;5030476;28;20196;-71
2023/12/12 02:21:41;;;;;;;11.40;10.30;;;8.10;99.90;;;;;;5036907;28;20211;-71
2023/12/12 02:24:08;;;;;;;12.17;11.00;;;8.10;99.90;;;;;;5027158;28;20200;-71
2023/12/12 02:26:35;;;;;;;12.00;11.07;;;8.10;99.90;;;;;;5033306;28;20551;-71
2023/12/12 02:29:02;;;;;;;11.83;10.77;;;8.00;99.90;;;;;;5035128;28;20196;-70
2023/12/12 02:31:29;;;;;;;11.93;10.90;;;8.00;99.90;;;;;;5032371;28;20328;-70
2023/12/12 02:33:56;;;;;;;11.60;10.40;;;8.00;99.90;;;;;;5036284;28;20208;-70
2023/12/12 02:36:23;;;;;;;10.63;9.93;;;8.00;99.90;;;;;;5033495;28;20185;-70
2023/12/12 02:38:50;;;;;;;13.57;10.73;;;8.00;99.90;;;;;;5048494;28;20211;-70
2023/12/12 02:41:18;;;;;;;12.83;10.70;;;8.00;99.90;;;;;;5035352;28;20280;-69
2023/12/12 02:43:45;;;;;;;11.40;10.47;;;8.00;99.90;;;;;;5022640;28;20211;-71
2023/12/12 02:46:12;;;;;;;11.20;10.20;;;8.10;99.90;;;;;;5032936;28;20205;-70
2023/12/12 02:48:41;;;;;;;13.67;10.60;;;8.00;99.90;;;;;;5031736;28;20278;-70
2023/12/12 02:51:09;;;;;;;11.87;10.80;;;8.00;99.90;;;;;;5025194;28;20188;-70
2023/12/12 02:53:36;;;;;;;12.80;10.70;;;8.10;99.90;;;;;;5037772;28;20644;-70
2023/12/12 02:56:03;;;;;;;11.60;10.40;;;8.00;99.90;;;;;;5029389;28;20258;-70
2023/12/12 02:58:30;;;;;;;11.80;10.87;;;8.00;99.90;;;;;;5022691;28;20216;-70
2023/12/12 03:04:57;;;;;;;11.67;10.67;;;8.00;99.90;;;;;;5038329;28;20275;-70
2023/12/12 03:07:24;;;;;;;10.63;9.93;;;8.00;99.90;;;;;;5017708;28;20201;-70
2023/12/12 03:09:52;;;;;;;11.50;10.53;;;8.00;99.90;;;;;;5023659;28;20200;-70
2023/12/12 03:12:19;;;;;;;10.97;10.07;;;8.00;99.90;;;;;;5025469;28;20327;-70
2023/12/12 03:14:46;;;;;;;11.77;10.70;;;8.00;99.90;;;;;;5033237;28;20290;-70
2023/12/12 03:17:13;;;;;;;11.03;10.20;;;8.00;99.90;;;;;;5020311;28;20197;-70
2023/12/12 03:19:40;;;;;;;11.00;10.10;;;8.00;99.90;;;;;;5031615;28;20192;-70
2023/12/12 03:22:07;;;;;;;11.20;10.33;;;8.00;99.90;;;;;;5034637;28;20645;-70
2023/12/12 03:24:34;;;;;;;11.20;10.33;;;8.00;99.90;;;;;;5034352;28;20233;-70
2023/12/12 03:27:01;;;;;;;12.90;10.53;;;8.00;99.90;;;;;;5024421;28;20252;-70
2023/12/12 03:29:28;;;;;;;11.93;10.93;;;8.00;99.90;;;;;;5026725;28;20188;-70
2023/12/12 03:31:58;;;;;;;12.47;10.77;;;7.90;99.90;;;;;;5025839;28;20252;-71
2023/12/12 03:34:25;;;;;;;11.37;10.60;;;7.90;99.90;;;;;;5030350;28;20276;-70
2023/12/12 03:36:53;;;;;;;16.00;10.47;;;7.90;99.90;;;;;;5025874;28;20286;-70
2023/12/12 03:39:21;;;;;;;11.77;10.77;;;7.90;99.90;;;;;;5024063;28;20192;-71
2023/12/12 03:41:48;;;;;;;11.40;10.70;;;7.90;99.90;;;;;;5025738;28;20691;-71
2023/12/12 03:44:15;;;;;;;12.20;10.93;;;7.90;99.90;;;;;;5026662;28;20189;-71
2023/12/12 03:46:42;;;;;;;11.20;10.30;;;7.90;99.90;;;;;;5029868;28;20730;-71
2023/12/12 03:49:09;;;;;;;10.77;10.03;;;7.90;99.90;;;;;;5027614;28;20199;-72
2023/12/12 03:51:36;;;;;;;11.17;10.23;;;7.90;99.90;;;;;;5028165;28;20279;-72
2023/12/12 03:54:03;;;;;;;13.57;10.63;;;7.90;99.90;;;;;;5023957;28;20189;-72
2023/12/12 03:56:30;;;;;;;11.00;10.17;;;7.90;99.90;;;;;;5021395;28;20589;-72
2023/12/12 03:58:58;;;;;;;11.20;10.50;;;7.90;99.90;;;;;;5033264;28;20210;-70
2023/12/12 04:01:25;;;;;;;12.60;11.53;;;7.80;99.90;;;;;;5034848;28;20211;-71
2023/12/12 04:03:55;;;;;;;14.00;12.13;;;7.80;99.90;;;;;;5037923;28;20292;-71
2023/12/12 04:06:22;;;;;;;13.13;12.00;;;7.80;99.90;;;;;;5036142;28;20187;-73
2023/12/12 04:08:50;;;;;;;14.57;11.60;;;7.80;99.90;;;;;;5024509;28;20192;-71
2023/12/12 04:11:17;;;;;;;15.77;14.10;;;7.70;99.90;;;;;;5018696;28;20532;-77
2023/12/12 04:13:44;;;;;;;18.53;16.80;;;7.70;99.90;;;;;;5018679;28;20210;-70
2023/12/12 04:16:11;;;;;;;13.43;12.17;;;7.70;99.90;;;;;;5040356;28;20235;-71
2023/12/12 04:18:38;;;;;;;19.27;12.50;;;7.60;99.90;;;;;;5027251;28;20208;-70
2023/12/12 04:21:05;;;;;;;12.97;11.63;;;7.60;99.90;;;;;;5040227;28;20266;-70
2023/12/12 04:23:35;;;;;;;13.03;11.83;;;7.60;99.90;;;;;;5037249;28;20196;-70
2023/12/12 04:26:02;;;;;;;12.57;11.27;;;7.50;99.90;;;;;;5021897;28;20200;-70
2023/12/12 04:28:29;;;;;;;12.80;11.70;;;7.50;99.90;;;;;;5024884;28;20193;-70
2023/12/12 04:30:56;;;;;;;13.53;12.40;;;7.50;99.90;;;;;;5029181;28;20688;-70
2023/12/12 04:33:23;;;;;;;13.30;11.50;;;7.50;99.90;;;;;;5034687;28;20184;-70
2023/12/12 04:35:50;;;;;;;12.33;11.23;;;7.50;99.90;;;;;;5030448;28;20674;-70
2023/12/12 04:38:17;;;;;;;16.30;11.33;;;7.60;99.90;;;;;;5033800;28;20208;-70
2023/12/12 04:40:44;;;;;;;11.47;10.60;;;7.50;99.90;;;;;;5025704;28;20220;-70
2023/12/12 04:43:11;;;;;;;13.20;11.43;;;7.30;99.90;;;;;;5028711;28;20196;-72
2023/12/12 04:45:38;;;;;;;12.53;11.20;;;7.30;99.90;;;;;;5030253;28;20274;-70
2023/12/12 04:48:06;;;;;;;12.40;11.13;;;7.10;99.90;;;;;;5026967;28;20200;-70
2023/12/12 04:50:33;;;;;;;11.83;11.00;;;7.10;99.90;;;;;;5025979;28;20196;-70
2023/12/12 04:53:00;;;;;;;11.80;10.80;;;6.90;99.90;;;;;;5043337;28;20199;-71
2023/12/12 04:55:27;;;;;;;14.80;10.70;;;6.70;99.90;;;;;;5032345;28;20679;-71
2023/12/12 04:57:54;;;;;;;11.50;10.37;;;6.60;99.90;;;;;;5025259;28;20243;-71
2023/12/12 05:00:21;;;;;;;12.03;11.00;;;6.40;99.90;;;;;;5032610;28;20183;-71
2023/12/12 05:02:48;;;;;;;11.67;10.60;;;6.40;99.90;;;;;;5029552;28;20727;-72
2023/12/12 05:05:15;;;;;;;14.50;11.30;;;6.30;99.90;;;;;;5035947;28;20200;-71
2023/12/12 05:07:42;;;;;;;11.90;10.80;;;6.30;99.90;;;;;;5030039;28;20196;-66
2023/12/12 05:10:09;;;;;;;12.30;11.17;;;6.40;99.90;;;;;;5029538;28;20194;-65
2023/12/12 05:12:36;;;;;;;16.23;11.93;;;6.30;99.90;;;;;;5026601;28;20712;-67
2023/12/12 05:15:04;;;;;;;18.47;11.30;;;6.20;99.90;;;;;;5036963;28;20374;-66
2023/12/12 05:17:31;;;;;;;13.27;10.87;;;6.20;99.90;;;;;;5024395;28;20232;-67
2023/12/12 05:20:00;;;;;;;12.20;10.73;;;6.20;99.90;;;;;;5022204;28;20379;-65
2023/12/12 05:22:27;;;;;;;12.37;11.00;;;6.20;99.90;;;;;;5032891;28;20257;-66
2023/12/12 05:24:54;;;;;;;11.80;11.00;;;6.10;99.90;;;;;;5042619;28;20286;-67
2023/12/12 05:27:21;;;;;;;12.10;10.90;;;6.10;99.90;;;;;;5019319;28;20201;-66
2023/12/12 05:29:48;;;;;;;13.70;10.57;;;6.10;99.90;;;;;;5026910;28;20197;-67
2023/12/12 05:32:15;;;;;;;18.20;10.73;;;6.10;99.90;;;;;;5021642;28;20189;-70
2023/12/12 05:34:42;;;;;;;15.03;10.23;;;6.00;99.90;;;;;;5031057;28;20215;-68
2023/12/12 05:37:09;;;;;;;17.63;10.60;;;6.00;99.90;;;;;;5028626;28;20329;-69
2023/12/12 05:39:36;;;;;;;14.83;10.80;;;6.00;99.90;;;;;;5022421;28;20275;-69
2023/12/12 05:42:04;;;;;;;11.93;10.67;;;5.90;99.90;;;;;;5033238;28;20307;-69
2023/12/12 05:44:31;;;;;;;11.37;10.27;;;5.80;99.90;;;;;;5023507;28;20589;-69
2023/12/12 05:46:59;;;;;;;12.03;10.90;;;5.80;1.00;;;;;;5032339;28;20219;-69
2023/12/12 05:49:26;;;;;;;22.70;11.23;;;5.80;1.00;;;;;;5032496;28;20603;-69
2023/12/12 05:51:53;;;;;;;11.07;9.93;;;5.80;1.00;;;;;;5031091;28;20258;-69
2023/12/12 05:54:20;;;;;;;13.27;11.77;;;5.80;1.00;;;;;;5028095;28;20607;-70
2023/12/12 05:56:52;;;;;;;22.63;14.43;;;5.70;1.00;;;;;;5031567;28;20311;-68
2023/12/12 05:59:19;;;;;;;14.80;13.07;;;5.60;1.00;;;;;;5028753;28;20683;-69
2023/12/12 06:01:46;;;;;;;22.77;14.10;;;5.40;1.00;;;;;;5028391;28;20196;-69
2023/12/12 06:04:14;;;;;;;15.73;11.40;;;5.40;1.00;;;;;;5031742;28;20192;-70
2023/12/12 06:06:43;;;;;;;19.53;11.43;;;5.50;1.00;;;;;;5031410;28;20199;-67
2023/12/12 06:09:13;;;;;;;20.43;11.87;;;5.60;1.00;;;;;;5029680;28;20755;-69
2023/12/12 06:11:41;;;;;;;16.20;11.40;;;5.70;1.00;;;;;;5045560;28;20261;-69
2023/12/12 06:14:09;;;;;;;12.10;10.93;;;5.90;1.00;;;;;;5043540;28;20211;-69
2023/12/12 06:16:37;;;;;;;11.43;10.30;;;6.00;1.00;;;;;;5036358;28;20298;-69
2023/12/12 06:19:05;;;;;;;12.20;10.90;;;6.10;1.00;;;;;;5022266;28;20269;-69
2023/12/12 06:21:33;;;;;;;27.50;10.20;;;6.20;1.00;;;;;;5043469;28;20251;-69
2023/12/12 06:24:04;;;;;;;14.27;9.90;;;6.30;1.00;;;;;;5027559;28;20609;-69
2023/12/12 06:26:31;;;;;;;14.13;9.90;;;6.40;1.00;;;;;;5031277;28;20192;-69
2023/12/12 06:28:59;;;;;;;21.33;9.90;;;6.50;1.00;;;;;;5019299;28;20665;-69
2023/12/12 06:31:26;;;;;;;15.93;10.13;;;6.60;1.00;;;;;;5030707;28;20311;-70
2023/12/12 06:33:53;;;;;;;20.60;10.87;;;6.60;1.00;;;;;;5029096;28;20281;-69
2023/12/12 06:36:21;;;;;;;16.70;9.53;;;6.60;1.00;;;;;;5030463;28;20205;-69
2023/12/12 06:38:47;;;;;;;12.30;10.13;;;6.70;1.00;;;;;;5030382;28;20192;-69
2023/12/12 06:41:14;;;;;;;22.80;12.77;;;6.70;99.90;;;;;;5029018;28;20375;-69
2023/12/12 06:43:45;;;;;;;13.60;12.10;;;6.90;99.90;;;;;;5029121;28;20558;-69
2023/12/12 06:46:12;;;;;;;20.30;12.07;;;6.90;99.90;;;;;;5023881;28;20266;-67
2023/12/12 06:48:39;;;;;;;12.37;11.27;;;6.90;99.90;;;;;;5029672;28;20188;-69
2023/12/12 06:51:06;;;;;;;18.23;10.57;;;7.00;99.90;;;;;;5030226;28;20283;-70
2023/12/12 06:53:33;;;;;;;13.77;10.60;;;6.90;99.90;;;;;;5028647;28;20207;-69
2023/12/12 06:56:00;;;;;;;28.33;11.60;;;6.90;99.90;;;;;;5028339;28;20212;-69
2023/12/12 06:58:28;;;;;;;11.20;10.30;;;6.80;99.90;;;;;;5030097;28;20208;-69
2023/12/12 07:00:55;;;;;;;12.23;10.97;;;6.80;99.90;;;;;;5021393;28;20188;-69
2023/12/12 07:03:22;;;;;;;19.03;10.60;;;6.80;99.90;;;;;;5018048;28;20255;-67
2023/12/12 07:05:52;;;;;;;18.27;11.67;;;6.80;99.90;;;;;;5032119;28;20203;-69
2023/12/12 07:08:21;;;;;;;14.63;11.23;;;6.80;99.90;;;;;;5029053;28;20334;-70
2023/12/12 07:10:48;;;;;;;12.80;10.77;;;6.80;99.90;;;;;;5030698;28;20242;-69
2023/12/12 07:13:15;;;;;;;23.97;10.93;;;6.90;99.90;;;;;;5020598;28;20397;-72
2023/12/12 07:15:42;;;;;;;11.37;10.20;;;6.90;99.90;;;;;;5028441;28;20369;-69
2023/12/12 07:18:14;;;;;;;12.07;10.77;;;6.90;99.90;;;;;;5028933;28;20196;-69
2023/12/12 07:20:41;;;;;;;13.80;10.27;;;7.00;99.90;;;;;;5024663;28;20192;-69
2023/12/12 07:23:08;;;;;;;22.90;11.07;;;7.00;99.90;;;;;;5030865;28;20196;-69
2023/12/12 07:25:35;;;;;;;13.20;10.40;;;7.00;99.90;;;;;;5040274;28;20200;-69
2023/12/12 07:28:02;;;;;;;19.77;11.03;;;7.00;99.90;;;;;;5030277;28;20517;-73
2023/12/12 07:30:29;;;;;;;14.57;10.60;;;6.90;99.90;;;;;;5037431;28;20196;-73
2023/12/12 07:32:57;;;;;;;12.13;10.63;;;6.90;99.90;;;;;;5028487;28;20203;-72
2023/12/12 07:35:25;;;;;;;14.90;11.63;;;7.00;99.90;;;;;;5035877;28;20266;-73
2023/12/12 07:37:52;;;;;;;12.13;11.00;;;7.00;99.90;;;;;;5028531;28;20204;-73
2023/12/12 07:40:19;;;;;;;18.13;10.83;;;6.90;99.90;;;;;;5030597;28;20517;-73
2023/12/12 07:42:46;;;;;;;19.30;11.73;;;6.90;99.90;;;;;;5028591;28;20323;-73
2023/12/12 07:45:13;;;;;;;15.10;12.07;;;6.90;99.90;;;;;;5035656;28;20264;-71
2023/12/12 07:47:40;;;;;;;22.03;12.17;;;6.90;99.90;;;;;;5044117;28;20211;-71
2023/12/12 07:50:10;;;;;;;14.80;10.67;;;6.90;99.90;;;;;;5014200;28;20247;-71
2023/12/12 07:52:37;;;;;;;12.23;11.03;;;6.90;99.90;;;;;;5024270;28;20224;-71
2023/12/12 07:55:05;;;;;;;17.23;11.47;;;6.90;99.90;;;;;;5024243;28;20680;-70
2023/12/12 07:57:33;;;;;;;18.77;11.80;;;7.00;99.90;;;;;;5029980;28;20238;-71
2023/12/12 08:00:00;;;;;;;19.37;12.37;;;7.00;99.90;;;;;;5029173;28;20599;-73
2023/12/12 08:02:28;;;;;;;14.93;11.97;;;7.00;99.90;;;;;;5030474;28;20194;-70
2023/12/12 08:04:55;;;;;;;19.23;11.70;;;7.00;99.90;;;;;;5031347;28;20286;-71
2023/12/12 08:07:22;;;;;;;18.33;11.50;;;7.10;99.90;;;;;;5040774;28;20196;-68
2023/12/12 08:09:50;;;;;;;25.10;11.97;;;7.10;99.90;;;;;;5026741;28;20196;-68
2023/12/12 08:12:17;;;;;;;20.10;12.90;;;7.20;99.90;;;;;;5028590;28;20236;-68
2023/12/12 08:14:44;;;;;;;16.47;11.97;;;7.20;99.90;;;;;;5028304;28;20204;-67
2023/12/12 08:17:14;;;;;;;16.83;12.80;;;7.20;99.90;;;;;;5029354;28;20212;-68
2023/12/12 08:19:41;;;;;;;24.77;14.10;;;7.30;99.90;;;;;;5020510;28;20192;-67
2023/12/12 08:22:09;;;;;;;19.23;13.77;;;7.30;99.90;;;;;;5027968;28;20821;-68
2023/12/12 08:24:36;;;;;;;21.43;14.97;;;7.40;99.90;;;;;;5026288;28;20694;-68
2023/12/12 08:27:03;;;;;;;24.80;16.50;;;7.50;99.90;;;;;;5028467;28;20200;-68
2023/12/12 08:29:30;;;;;;;21.47;14.47;;;7.60;99.90;;;;;;5025966;28;20211;-69
2023/12/12 08:31:58;;;;;;;13.93;12.70;;;7.70;99.90;;;;;;5030755;28;20187;-68
2023/12/12 08:34:25;;;;;;;13.83;12.43;;;7.70;99.90;;;;;;5032828;28;20280;-67
2023/12/12 08:36:52;;;;;;;21.97;14.23;;;7.70;99.90;;;;;;5028832;28;20235;-78
2023/12/12 08:39:19;;;;;;;14.67;13.17;;;7.80;99.90;;;;;;5027320;28;20232;-68
2023/12/12 08:41:46;;;;;;;15.20;13.47;;;7.80;99.90;;;;;;5028911;28;20219;-69
2023/12/12 08:44:13;;;;;;;14.43;12.43;;;7.80;99.90;;;;;;5027211;28;20184;-71
2023/12/12 08:46:43;;;;;;;15.80;12.77;;;7.80;99.90;;;;;;5021803;28;20196;-68
2023/12/12 08:49:11;;;;;;;18.50;13.20;;;7.80;99.90;;;;;;5028430;28;20591;-68
2023/12/12 08:51:39;;;;;;;23.83;13.20;;;7.90;99.90;;;;;;5032068;28;20203;-69
2023/12/12 08:54:06;;;;;;;14.50;13.17;;;8.00;99.90;;;;;;5033646;28;20196;-68
2023/12/12 08:56:33;;;;;;;15.17;12.87;;;7.90;99.90;;;;;;5028345;28;20235;-68
2023/12/12 08:59:00;;;;;;;15.97;14.03;;;8.00;99.90;;;;;;5027868;28;20600;-71
2023/12/12 09:01:27;;;;;;;15.80;13.90;;;8.00;99.90;;;;;;5026261;28;20271;-68
2023/12/12 09:03:54;;;;;;;26.40;13.30;;;8.10;99.90;;;;;;5016388;28;20532;-69
2023/12/12 09:06:23;;;;;;;22.87;13.33;;;8.10;99.90;;;;;;5047192;28;20196;-68
2023/12/12 09:08:50;;;;;;;17.73;13.43;;;8.10;99.90;;;;;;5037188;28;20196;-68
2023/12/12 09:11:17;;;;;;;15.17;13.53;;;8.20;99.90;;;;;;5034876;28;20255;-69
2023/12/12 09:13:46;;;;;;;17.83;13.43;;;8.20;99.90;;;;;;5037908;28;20203;-68
2023/12/12 09:16:13;;;;;;;14.43;12.93;;;8.20;99.90;;;;;;5025608;28;20220;-68
2023/12/12 09:18:40;;;;;;;13.90;12.60;;;8.20;99.90;;;;;;5007180;28;20209;-71
2023/12/12 09:21:07;;;;;;;13.83;12.60;;;8.30;99.90;;;;;;5040399;28;20199;-72
2023/12/12 09:23:39;;;;;;;17.40;13.47;;;8.30;99.90;;;;;;5023493;28;20195;-71
2023/12/12 09:26:11;;;;;;;21.30;13.50;;;8.40;99.90;;;;;;5028620;28;20290;-74
2023/12/12 09:28:41;;;;;;;13.97;12.67;;;8.90;99.90;;;;;;5035034;28;20196;-71
2023/12/12 09:31:09;;;;;;;14.87;12.80;;;9.90;99.90;;;;;;5016370;28;20188;-72
2023/12/12 09:33:37;;;;;;;18.10;14.00;;;13.30;99.90;;;;;;5028746;28;20298;-73
2023/12/12 09:36:08;;;;;;;16.38;14.77;;;13.70;99.90;;;;;;5017155;28;20299;-73
2023/12/12 09:38:36;;;;;;;15.45;13.90;;;11.80;99.90;;;;;;5027801;28;20199;-71
2023/12/12 09:41:03;;;;;;;14.75;13.43;;;12.50;99.90;;;;;;5028062;28;20332;-72
2023/12/12 09:43:34;;;;;;;15.80;14.35;;;13.10;99.90;;;;;;5027102;28;20648;-74
2023/12/12 09:46:04;;;;;;;17.48;14.02;;;13.40;99.90;;;;;;5028092;28;20956;-72
2023/12/12 09:48:32;;;;;;;15.63;14.35;;;15.60;99.90;;;;;;5029537;28;20193;-71
2023/12/12 09:51:00;;;;;;;17.27;15.07;;;17.80;99.90;;;;;;5028575;28;20560;-74
2023/12/12 09:53:30;;;;;;;16.48;15.00;;;16.90;99.90;;;;;;5016923;28;20203;-72
2023/12/12 09:56:00;;;;;;;17.90;16.08;;;16.80;99.90;;;;;;5029425;28;20228;-73
2023/12/12 09:58:27;;;;;;;17.48;16.08;;;17.90;99.90;;;;;;5016662;28;20219;-72
2023/12/12 10:00:55;;;;;;;18.38;16.45;;;19.30;99.90;;;;;;5029622;28;20200;-73
2023/12/12 10:03:24;;;;;;;18.65;16.65;;;19.00;99.90;;;;;;5027142;28;20646;-73
2023/12/12 10:05:54;;;;;;;18.60;17.00;;;19.30;99.90;;;;;;5030866;28;20203;-73
2023/12/12 10:08:23;;;;;;;19.67;17.23;;;18.50;99.90;;;;;;5016576;28;20627;-72
2023/12/12 10:10:53;;;;;;;18.85;17.02;;;18.80;99.90;;;;;;5016051;28;20330;-73
2023/12/12 10:13:20;;;;;;;19.10;17.05;;;19.30;99.90;;;;;;5025064;28;20247;-74
2023/12/12 10:15:48;;;;;;;20.27;17.30;;;17.50;99.90;;;;;;5029580;28;20711;-72
2023/12/12 10:18:15;;;;;;;18.45;16.58;;;17.40;99.90;;;;;;5026148;28;20239;-73
2023/12/12 10:20:42;;;;;;;19.23;17.35;;;18.10;99.90;;;;;;5027705;28;20266;-73
2023/12/12 10:23:09;;;;;;;19.50;17.48;;;18.00;99.90;;;;;;5027836;28;20336;-73
2023/12/12 10:25:36;;;;;;;20.75;17.40;;;17.80;99.90;;;;;;5028337;28;20196;-73
2023/12/12 10:28:03;;;;;;;18.88;17.05;;;19.00;99.90;;;;;;5009624;28;20517;-69
2023/12/12 10:30:30;;;;;;;19.75;17.73;;;17.40;99.90;;;;;;5010022;28;20316;-70
2023/12/12 10:32:58;;;;;;;18.67;16.70;;;16.10;99.90;;;;;;5023878;28;20192;-69
2023/12/12 10:35:25;;;;;;;18.20;16.50;;;16.40;99.90;;;;;;5029974;28;20192;-69
2023/12/12 10:37:52;;;;;;;18.55;16.65;;;15.60;99.90;;;;;;5027576;28;20215;-71
2023/12/12 10:40:22;;;;;;;19.85;17.58;;;15.60;99.90;;;;;;5031462;28;20267;-73
2023/12/12 10:42:51;;;;;;;18.42;16.80;;;15.10;99.90;;;;;;5028097;28;20211;-69
2023/12/12 10:45:20;;;;;;;18.13;16.20;;;15.50;99.90;;;;;;5032158;28;20833;-70
2023/12/12 10:47:49;;;;;;;19.45;16.95;;;17.10;99.90;;;;;;5031070;28;20609;-70
2023/12/12 10:50:17;;;;;;;19.23;17.10;;;20.20;99.90;;;;;;5031245;28;20211;-70
2023/12/12 10:52:48;;;;;;;19.98;17.52;;;18.80;99.90;;;;;;5032403;28;20233;-69
2023/12/12 10:55:16;;;;;;;18.95;17.08;;;17.80;99.90;;;;;;5026704;28;20224;-69
2023/12/12 10:57:47;;;;;;;22.02;17.10;;;17.30;99.90;;;;;;5030328;28;20259;-70
2023/12/12 11:00:15;;;;;;;18.00;16.40;;;17.00;99.90;;;;;;5026820;28;20665;-70
2023/12/12 11:02:46;;;;;;;18.90;17.00;;;16.90;99.90;;;;;;5024969;28;20769;-69
2023/12/12 11:05:15;;;;;;;18.55;16.58;;;17.70;99.90;;;;;;5031000;28;20563;-69
2023/12/12 11:07:47;;;;;;;19.80;17.48;;;19.10;99.90;;;;;;5024967;28;20231;-69
2023/12/12 11:10:19;;;;;;;18.83;16.95;;;19.00;99.90;;;;;;5022804;28;20275;-69
2023/12/12 11:12:56;;;;;;;19.75;16.67;;;19.00;99.90;;;;;;5039039;28;20321;-70
2023/12/12 11:15:25;;;;;;;19.15;17.40;;;17.30;99.90;;;;;;5029867;28;20601;-70
2023/12/12 11:17:53;;;;;;;20.02;17.38;;;17.40;99.90;;;;;;5034495;28;20508;-69
2023/12/12 11:20:20;;;;;;;20.00;17.63;;;16.30;99.90;;;;;;5038755;28;20657;-76
2023/12/12 11:22:51;;;;;;;18.85;16.85;;;15.40;99.90;;;;;;5038071;28;20199;-69
2023/12/12 11:25:19;;;;;;;19.35;17.60;;;16.30;99.90;;;;;;5032482;28;20189;-70
2023/12/12 11:27:52;;;;;;;18.75;16.67;;;16.80;99.90;;;;;;5044258;28;20612;-70
2023/12/12 11:30:29;;;;;;;18.88;16.98;;;18.00;99.90;;;;;;5027791;28;20700;-69
2023/12/12 11:32:56;;;;;;;19.13;17.02;;;17.80;99.90;;;;;;5034711;28;20207;-69
2023/12/12 11:35:25;;;;;;;20.88;17.38;;;17.50;99.90;;;;;;5043344;28;20200;-69
2023/12/12 11:37:56;;;;;;;18.60;16.80;;;18.40;99.90;;;;;;5025927;28;20684;-73
2023/12/12 11:40:27;;;;;;;18.35;16.80;;;18.90;99.90;;;;;;5029337;28;20200;-73
2023/12/12 11:43:17;;;;;;;18.90;16.70;;;18.20;99.90;;;;;;5031579;28;20192;-73
2023/12/12 11:45:44;;;;;;;19.10;17.02;;;17.70;99.90;;;;;;5030331;28;20611;-72
2023/12/12 11:48:12;;;;;;;19.38;17.20;;;18.80;99.90;;;;;;5030308;28;20258;-72
2023/12/12 11:50:39;;;;;;;20.50;18.50;;;18.10;99.90;;;;;;5030288;28;20763;-71
2023/12/12 11:53:06;;;;;;;19.05;17.23;;;16.30;99.90;;;;;;5030685;28;20196;-73
2023/12/12 11:55:35;;;;;;;18.80;16.92;;;16.20;99.90;;;;;;5031047;28;20258;-73
2023/12/12 11:58:06;;;;;;;18.90;17.05;;;16.30;99.90;;;;;;5031333;28;20295;-72
2023/12/12 12:00:36;;;;;;;18.98;17.00;;;15.80;99.90;;;;;;5031617;28;20220;-72
2023/12/12 12:03:05;;;;;;;18.45;17.00;;;15.80;99.90;;;;;;5030506;28;20587;-73
2023/12/12 12:05:32;;;;;;;18.33;16.77;;;15.40;99.90;;;;;;5030966;28;20200;-72
2023/12/12 12:08:02;;;;;;;16.95;15.60;;;15.00;99.90;;;;;;5027792;28;20315;-70
2023/12/12 12:10:30;;;;;;;17.40;15.93;;;15.30;99.90;;;;;;5032855;28;20204;-69
2023/12/12 12:12:58;;;;;;;18.02;16.40;;;14.60;99.90;;;;;;5021476;28;20315;-70
2023/12/12 12:15:26;;;;;;;18.27;16.70;;;14.00;99.90;;;;;;5034189;28;20200;-69
2023/12/12 12:17:56;;;;;;;18.05;16.45;;;13.60;99.90;;;;;;5026986;28;20212;-68
2023/12/12 12:20:24;;;;;;;21.38;16.30;;;13.30;99.90;;;;;;5029576;28;20189;-68
2023/12/12 12:22:51;;;;;;;18.10;16.42;;;13.30;99.90;;;;;;5028866;28;20224;-68
2023/12/12 12:25:26;;;;;;;17.63;16.05;;;13.00;99.90;;;;;;5020287;28;20262;-69
2023/12/12 12:27:55;;;;;;;17.40;15.88;;;12.90;99.90;;;;;;5027413;28;20298;-70
2023/12/12 12:30:23;;;;;;;17.02;15.70;;;13.00;99.90;;;;;;5025747;28;20657;-68
2023/12/12 12:32:58;;;;;;;17.75;16.00;;;13.00;99.90;;;;;;5022414;28;20561;-70
2023/12/12 12:35:25;;;;;;;17.90;16.35;;;12.80;99.90;;;;;;5019897;28;20196;-68
2023/12/12 12:37:53;;;;;;;17.38;15.85;;;12.50;99.90;;;;;;5029121;28;20208;-68
2023/12/12 12:40:38;;;;;;;20.35;15.73;;;12.50;99.90;;;;;;5017570;28;20201;-68
2023/12/12 12:43:17;;;;;;;16.90;15.65;;;12.40;99.90;;;;;;5021258;28;20577;-70